Date,TemperatureHighF,TemperatureAvgF,TemperatureLowF,DewpointHighF,DewpointAvgF,DewpointLowF,HumidityHigh,HumidityAvg,HumidityLow,PressureMaxIn,PressureMinIn,WindSpeedMaxMPH,WindSpeedAvgMPH,GustSpeedMaxMPH,PrecipitationSumIn
2013-1-1,48.4,46.0,42.4,47.3,39.7,29.1,96,80,52,30.14,29.93,1,0,4,0.00
2013-1-2,47.2,43.0,38.3,46.1,40.0,36.7,100,90,73,30.21,29.95,2,0,4,0.00
2013-1-3,41.5,37.2,28.7,37.6,34.8,27.4,95,91,79,30.30,30.17,0,0,3,0.00
2013-1-4,47.7,36.1,26.2,28.3,25.2,21.9,96,68,38,30.36,30.23,2,0,5,0.05
2013-1-5,48.8,37.4,27.0,32.4,25.7,21.9,84,64,39,30.42,30.27,2,0,6,0.08
2013-1-6,51.5,43.3,38.0,38.7,35.6,30.4,90,75,57,30.27,30.08,1,0,2,0.00
2013-1-7,50.1,39.2,30.8,34.0,30.8,28.2,91,73,49,30.46,30.21,2,0,6,0.03
2013-1-8,55.0,40.4,27.5,43.0,34.7,25.7,95,81,58,30.51,30.41,1,0,1,0.15
2013-1-9,64.7,49.8,34.4,54.6,44.5,32.9,96,83,67,30.48,30.38,2,0,4,0.00
2013-1-10,61.4,53.3,44.9,50.2,43.4,35.9,94,71,43,30.56,30.44,3,0,6,0.00
2013-1-11,48.2,44.5,39.6,46.2,41.4,35.6,100,90,62,30.45,30.18,1,0,4,0.00
2013-1-12,69.7,57.5,46.3,63.8,55.7,45.5,98,94,79,30.19,30.11,1,0,3,0.00
2013-1-13,73.2,62.9,53.9,62.3,58.6,53.1,98,87,67,30.14,30.05,2,0,7,0.00
2013-1-14,63.6,61.7,51.4,62.0,59.2,49.7,97,92,85,30.17,30.08,3,0,6,0.00
2013-1-15,50.9,43.0,41.1,49.2,42.0,40.3,98,96,94,30.26,30.11,4,1,12,0.00
2013-1-16,49.2,43.9,39.3,48.7,43.3,38.5,98,98,97,30.10,29.99,1,0,4,0.00
2013-1-17,49.5,44.5,32.9,49.0,43.7,31.9,98,97,93,30.18,29.93,6,1,15,0.00
2013-1-18,41.5,33.8,26.9,33.7,29.9,25.0,97,86,57,30.57,30.18,1,0,4,0.01
2013-1-19,52.1,37.3,25.8,32.7,28.3,24.3,95,73,41,30.54,30.18,2,0,5,0.02
2013-1-20,58.7,46.9,37.7,36.8,32.2,29.3,75,58,39,30.18,30.01,3,1,6,0.00
2013-1-21,58.0,43.1,28.8,33.7,28.2,18.9,95,60,33,30.11,29.88,3,0,6,0.03
2013-1-22,40.6,31.1,22.8,20.1,7.5,-2.6,64,38,20,30.31,29.98,3,1,6,0.01
2013-1-23,39.9,27.7,16.0,17.7,12.1,5.3,79,54,34,30.42,30.09,3,0,4,0.36
2013-1-24,35.5,30.1,22.0,26.0,13.0,3.5,72,50,30,30.55,30.00,4,1,10,0.05
2013-1-25,25.3,22.1,17.9,23.3,12.8,4.4,92,68,47,30.56,30.19,1,0,4,0.00
2013-1-26,36.2,32.0,26.5,33.5,29.9,25.1,95,92,87,30.45,30.25,0,0,2,0.19
2013-1-27,39.2,30.5,22.0,28.3,24.8,20.1,95,80,59,30.64,30.44,3,0,5,0.11
2013-1-28,50.9,41.6,30.5,46.8,35.9,26.6,93,81,58,30.53,30.25,3,0,7,0.15
2013-1-29,72.1,59.1,48.1,57.4,52.1,45.9,93,79,55,30.26,30.06,3,1,10,0.02
2013-1-30,71.8,66.4,60.5,64.5,61.4,57.2,93,84,74,30.07,29.37,8,4,18,0.00
2013-1-31,60.0,44.7,33.3,57.1,30.4,20.7,92,59,37,30.02,29.43,5,2,13,0.00
2013-2-1,40.5,32.7,23.6,29.5,14.4,4.0,77,48,30,30.42,29.88,7,2,14,0.14
2013-2-2,41.6,31.0,17.4,34.7,14.4,8.1,87,52,31,30.43,30.07,3,0,6,0.10
2013-2-3,47.5,38.6,30.8,34.9,29.0,22.6,95,71,45,30.07,29.87,3,1,7,0.11
2013-2-4,47.5,36.9,25.0,28.5,23.2,19.1,87,60,37,30.18,30.02,2,0,9,0.05
2013-2-5,58.1,45.7,37.9,35.2,32.2,28.4,79,60,39,30.03,29.91,2,0,7,0.00
2013-2-6,58.2,44.6,33.0,35.8,29.4,23.7,90,60,27,30.31,29.99,2,0,5,0.00
2013-2-7,44.6,39.8,34.6,41.0,34.9,26.8,100,83,64,30.37,30.05,3,1,6,0.00
2013-2-8,52.8,43.5,36.5,45.8,38.4,29.5,96,83,57,30.08,29.85,4,1,7,0.00
2013-2-9,50.5,38.4,28.2,29.6,23.5,18.4,84,58,29,30.39,30.07,2,0,7,0.02
2013-2-10,51.0,38.6,25.7,38.0,23.3,18.9,89,58,32,30.53,30.23,2,0,7,0.03
2013-2-11,60.5,54.4,41.7,58.4,52.5,37.8,97,93,86,30.24,29.93,3,1,8,0.00
2013-2-12,59.4,51.0,42.3,51.8,34.6,27.6,92,56,30,30.10,29.93,2,0,5,0.00
2013-2-13,49.4,44.5,40.0,45.5,41.7,32.6,100,90,54,29.98,29.65,2,0,3,0.00
2013-2-14,50.4,40.3,30.5,34.8,32.1,28.5,95,74,47,30.10,29.85,2,0,5,0.01
2013-2-15,61.2,45.6,32.4,39.8,32.8,27.7,95,66,30,30.12,29.95,2,0,5,0.00
2013-2-16,43.3,34.5,27.9,35.3,31.5,24.8,96,89,70,30.00,29.86,1,0,5,0.00
2013-2-17,35.0,27.9,21.7,25.0,16.3,9.4,90,64,35,30.32,29.95,4,0,7,0.11
2013-2-18,51.6,34.0,16.1,26.2,18.5,12.3,88,57,31,30.45,30.27,2,0,6,0.03
2013-2-19,47.5,41.3,34.5,46.1,36.3,25.7,99,83,58,30.27,29.88,4,1,8,0.00
2013-2-20,50.2,39.9,29.9,35.9,19.5,13.0,93,46,24,30.17,29.99,4,1,7,0.05
2013-2-21,51.5,39.3,27.6,25.2,19.1,16.2,72,46,26,30.29,30.14,2,0,9,0.06
2013-2-22,41.3,34.9,31.7,33.9,30.4,21.2,96,85,45,30.38,30.17,3,0,3,0.00
2013-2-23,41.8,38.5,34.9,41.0,37.5,33.9,100,96,95,30.17,29.85,1,0,4,0.00
2013-2-24,61.2,48.0,39.2,44.3,35.7,25.8,98,67,30,30.06,29.82,4,0,6,0.00
2013-2-25,40.9,36.3,31.7,28.2,24.3,21.8,76,62,49,30.25,30.06,4,1,8,0.00
2013-2-26,53.3,42.1,33.0,52.5,38.6,24.9,97,88,66,30.19,29.59,8,2,12,0.00
2013-2-27,57.9,47.3,40.0,42.0,39.2,35.7,97,76,44,29.80,29.64,3,1,10,0.00
2013-2-28,48.1,41.5,34.3,39.9,31.9,27.1,94,70,47,29.88,29.71,3,0,6,0.00
2013-3-1,45.9,39.7,31.9,32.2,28.7,26.6,84,65,50,29.94,29.86,3,0,5,0.00
2013-3-2,45.4,37.7,29.7,29.7,25.9,20.1,86,63,47,29.95,29.84,2,0,4,0.00
2013-3-3,44.0,34.6,27.8,22.7,20.3,18.2,76,56,39,30.01,29.87,3,1,10,0.02
2013-3-4,50.1,36.0,23.8,25.1,17.2,14.2,77,49,24,30.15,30.00,4,1,8,0.02
2013-3-5,48.2,41.1,34.3,42.5,34.0,18.3,96,78,44,30.11,29.59,5,0,5,0.00
2013-3-6,45.9,40.1,35.0,40.9,32.2,27.6,96,75,55,30.07,29.55,7,2,15,0.00
2013-3-7,49.3,41.0,31.9,31.9,29.1,25.7,89,63,49,30.27,30.06,4,1,9,0.00
2013-3-8,53.5,42.3,30.7,29.1,26.0,24.1,81,55,33,30.33,30.19,5,1,8,0.02
2013-3-9,62.1,45.5,31.0,31.9,28.1,25.7,81,54,27,30.38,30.27,3,0,5,0.01
2013-3-10,66.6,49.4,31.0,34.3,28.7,25.0,88,51,23,30.35,30.22,2,0,8,0.00
2013-3-11,66.8,55.2,40.3,53.5,42.4,23.0,84,63,34,30.26,29.94,3,1,11,0.00
2013-3-12,66.4,58.7,47.6,59.5,51.0,31.6,95,77,48,29.97,29.75,5,1,12,0.00
2013-3-13,53.9,44.0,31.7,34.0,27.5,18.4,92,55,32,30.16,29.96,4,1,10,0.00
2013-3-14,51.8,40.1,30.5,23.2,19.3,16.0,63,45,25,30.27,30.14,4,1,7,0.02
2013-3-15,62.1,45.8,28.1,36.5,27.9,18.9,81,51,34,30.21,29.92,4,1,8,0.02
2013-3-16,76.9,60.8,46.7,56.8,45.4,35.8,81,60,36,29.92,29.65,4,1,11,0.00
2013-3-17,59.7,48.6,38.7,52.9,43.7,36.7,94,84,69,30.20,29.84,5,2,12,0.00
2013-3-18,40.0,38.1,36.4,39.0,36.8,35.1,100,95,93,30.23,29.88,3,1,6,0.00
2013-3-19,64.8,49.9,37.8,44.9,31.1,9.2,97,60,18,30.05,29.85,5,1,9,0.00
2013-3-20,56.2,45.7,37.7,26.8,15.8,9.1,64,31,19,30.12,29.82,3,0,7,0.00
2013-3-21,44.0,37.7,29.5,32.9,19.4,11.5,73,48,31,30.01,29.76,4,1,8,0.00
2013-3-22,50.1,35.9,22.3,22.8,15.7,12.5,75,46,23,30.11,30.00,3,0,10,0.02
2013-3-23,55.4,43.7,33.7,33.4,26.1,18.8,71,52,30,30.09,29.93,1,0,4,0.00
2013-3-24,40.2,37.1,34.7,37.2,33.7,29.0,95,88,71,29.95,29.59,4,1,12,0.00
2013-3-25,45.7,39.0,33.1,33.8,29.2,24.1,100,71,45,29.84,29.59,6,1,13,0.00
2013-3-26,47.9,40.6,32.1,29.9,27.4,24.6,79,60,45,30.14,29.84,3,1,5,0.00
2013-3-27,49.7,40.1,31.4,28.5,25.1,21.4,81,57,33,30.26,30.14,5,1,16,0.01
2013-3-28,54.6,42.1,29.7,29.1,25.2,23.6,79,54,31,30.32,30.18,4,1,7,0.00
2013-3-29,59.3,44.2,28.0,31.1,26.6,24.0,88,55,27,30.36,30.20,3,0,6,0.01
2013-3-30,66.8,52.3,37.9,43.3,33.4,27.1,83,52,27,30.27,30.10,3,0,7,0.00
2013-3-31,67.2,55.9,47.4,56.0,50.5,43.4,96,83,65,30.11,29.81,4,0,7,0.00
2013-4-1,70.8,58.5,48.1,53.0,46.3,35.5,97,69,34,30.00,29.82,4,1,10,0.00
2013-4-2,58.9,46.7,32.7,35.4,27.6,19.5,89,52,22,30.18,30.00,4,1,10,0.00
2013-4-3,58.5,46.9,32.6,32.4,22.6,17.1,75,41,20,30.33,30.17,2,0,7,0.00
2013-4-4,47.6,41.0,37.3,38.9,29.5,19.1,95,67,36,30.40,29.97,5,2,11,0.00
2013-4-5,65.2,48.5,36.9,48.0,40.0,35.5,97,76,40,30.05,29.91,2,0,5,0.00
2013-4-6,64.3,52.3,42.1,37.7,31.0,22.3,82,48,26,30.29,30.05,5,1,8,0.00
2013-4-7,72.0,56.6,36.6,44.2,39.5,33.1,89,56,34,30.29,30.12,3,1,8,0.00
2013-4-8,78.0,66.1,53.0,57.4,52.5,43.7,92,64,40,30.17,30.05,3,1,8,0.00
2013-4-9,85.6,71.5,56.2,59.4,56.1,53.3,93,62,35,30.18,30.05,3,0,8,0.00
2013-4-10,88.1,74.1,60.2,63.1,58.7,55.9,87,61,36,30.09,29.93,3,0,7,0.00
2013-4-11,80.5,71.1,61.5,65.5,60.6,57.2,90,70,50,29.98,29.78,3,1,9,0.00
2013-4-12,82.9,71.9,62.7,68.4,61.2,43.3,95,71,45,29.79,29.59,4,1,14,0.00
2013-4-13,74.5,62.0,49.0,46.4,41.6,37.3,73,49,28,30.02,29.77,2,0,5,0.00
2013-4-14,80.3,64.1,43.2,52.9,42.4,35.9,91,51,21,30.12,30.01,2,0,7,0.00
2013-4-15,70.8,62.6,54.9,58.3,55.6,53.0,94,79,59,30.22,30.02,4,1,10,0.00
2013-4-16,77.4,65.6,59.4,61.2,58.6,56.6,93,79,54,30.31,30.20,1,0,4,0.00
2013-4-17,79.7,68.0,58.3,66.0,61.2,56.1,96,80,59,30.23,30.12,2,0,3,0.00
2013-4-18,78.9,70.1,61.3,63.7,60.5,57.2,91,73,50,30.19,30.03,3,0,9,0.00
2013-4-19,79.0,69.3,63.7,69.8,64.4,61.6,95,85,68,30.04,29.70,5,1,9,0.00
2013-4-20,64.3,54.3,41.7,61.0,39.3,31.0,93,60,30,30.29,29.81,4,0,7,0.00
2013-4-21,60.9,49.2,38.0,41.2,37.1,32.9,94,66,42,30.52,30.29,5,1,9,0.00
2013-4-22,61.5,49.0,35.8,43.4,37.0,29.7,92,66,40,30.51,30.30,5,1,14,0.00
2013-4-23,69.3,54.2,45.3,52.9,46.8,43.4,93,78,51,30.32,30.14,2,0,6,0.05
2013-4-24,74.6,62.0,48.8,58.4,53.5,47.4,97,76,53,30.16,29.98,4,1,9,0.01
2013-4-25,70.4,58.9,45.7,56.8,44.2,38.3,90,61,32,30.29,30.01,2,0,8,0.00
2013-4-26,71.7,55.5,39.4,48.3,40.2,33.6,94,63,26,30.45,30.29,3,0,8,0.00
2013-4-27,73.5,61.4,51.1,54.6,47.0,39.9,91,61,35,30.39,30.27,2,0,7,0.01
2013-4-28,57.3,54.8,52.6,54.0,52.2,48.0,96,91,74,30.27,30.10,1,0,3,0.58
2013-4-29,71.9,60.9,54.4,63.3,58.0,53.3,98,91,69,30.10,29.98,1,0,4,0.35
2013-4-30,65.1,58.6,52.7,59.0,55.9,51.1,97,91,78,30.20,30.02,2,0,6,0.01
2013-5-1,61.1,57.7,55.0,58.7,55.6,54.2,97,92,88,30.35,30.19,3,1,7,0.01
2013-5-2,60.5,56.3,51.4,56.9,53.7,49.8,96,91,86,30.35,30.29,2,0,8,0.00
2013-5-3,67.0,55.7,46.4,54.9,48.8,43.6,97,79,50,30.30,30.20,3,1,8,0.00
2013-5-4,59.4,53.0,47.6,52.5,47.9,43.5,90,83,72,30.24,30.11,4,1,11,0.00
2013-5-5,57.4,52.6,47.4,54.2,49.5,44.7,94,89,83,30.13,30.01,3,2,13,0.03
2013-5-6,61.9,58.0,54.8,60.5,56.8,53.1,97,96,93,30.03,29.85,3,1,11,1.25
2013-5-7,70.7,60.0,52.6,59.3,54.2,48.3,98,83,48,29.95,29.87,1,0,5,0.06
2013-5-8,68.8,59.5,52.2,61.7,55.8,50.8,97,88,69,30.02,29.93,1,0,5,0.02
2013-5-9,81.8,65.3,49.8,62.4,57.1,48.7,98,78,44,30.07,29.99,1,0,5,0.01
2013-5-10,86.3,71.1,55.5,64.4,59.9,53.8,96,71,42,30.07,29.94,2,0,6,0.00
2013-5-11,82.1,71.7,64.6,67.8,63.1,59.5,95,75,52,29.95,29.78,2,0,6,0.10
2013-5-12,71.6,63.1,50.2,62.9,50.3,38.0,96,67,34,30.04,29.80,2,0,11,0.03
2013-5-13,65.7,53.7,40.4,44.5,38.5,31.6,95,61,32,30.21,30.04,2,0,7,0.00
2013-5-14,71.3,55.3,36.4,46.7,39.9,34.6,96,61,30,30.28,30.08,1,0,5,0.00
2013-5-15,89.1,70.2,53.0,65.2,55.8,44.3,78,62,42,30.09,29.89,1,0,4,0.00
2013-5-16,86.1,73.7,61.6,66.5,61.9,59.1,93,69,44,29.98,29.90,1,0,4,0.00
2013-5-17,88.7,73.6,60.7,68.2,62.6,58.6,96,72,40,30.08,29.98,1,0,3,0.00
2013-5-18,76.2,68.1,60.6,69.0,64.1,58.5,96,87,74,30.16,30.07,2,0,2,0.96
2013-5-19,78.1,67.5,62.7,70.3,65.6,61.5,98,94,75,30.16,30.06,1,0,2,0.95
2013-5-20,79.6,69.6,66.7,71.2,67.4,65.8,98,93,73,30.12,30.03,1,0,4,0.30
2013-5-21,88.5,74.2,67.0,74.8,69.2,65.8,97,86,59,30.06,29.94,1,0,6,0.00
2013-5-22,85.1,74.9,68.1,71.5,68.4,66.0,95,81,58,30.02,29.90,1,0,10,0.00
2013-5-23,80.0,71.2,64.6,70.4,67.0,63.0,98,87,67,29.97,29.81,0,0,3,0.54
2013-5-24,68.5,62.9,51.0,63.1,52.7,38.9,97,72,41,30.20,29.83,4,1,12,0.02
2013-5-25,74.8,57.0,41.5,52.4,42.1,33.4,95,63,27,30.29,30.15,2,0,8,0.00
2013-5-26,75.0,59.2,43.9,57.0,47.3,41.8,96,69,31,30.30,30.19,1,0,5,0.00
2013-5-27,81.2,65.1,48.6,60.2,53.7,47.2,97,71,40,30.30,30.16,1,0,5,0.00
2013-5-28,85.9,72.7,59.7,69.4,63.3,54.5,95,74,53,30.25,30.14,1,0,11,0.00
2013-5-29,87.0,74.0,61.2,67.6,64.0,59.6,96,74,48,30.24,30.16,1,0,7,0.00
2013-5-30,87.7,74.4,61.9,69.6,65.1,60.5,97,75,45,30.27,30.18,1,0,5,0.00
2013-5-31,88.0,75.3,64.0,71.5,66.4,62.5,97,76,48,30.22,30.10,1,0,4,0.00
2013-6-1,89.2,76.9,66.1,70.5,66.6,62.6,96,73,43,30.13,30.02,1,0,4,0.00
2013-6-2,86.5,75.8,66.8,72.1,67.7,64.4,94,77,55,30.04,29.91,1,0,8,0.14
2013-6-3,83.1,71.6,64.7,72.8,68.6,63.5,97,91,66,29.95,29.83,2,0,7,0.71
2013-6-4,77.0,67.9,62.9,67.4,64.0,62.0,98,88,66,30.11,29.95,1,0,5,0.01
2013-6-5,81.5,70.1,60.1,67.3,62.7,59.2,97,79,53,30.15,30.02,1,0,4,0.00
2013-6-6,72.8,69.6,63.9,71.4,66.3,59.0,97,89,72,30.05,29.81,1,0,5,0.24
2013-6-7,70.8,68.9,67.2,69.9,68.0,66.3,98,97,96,29.85,29.55,2,0,5,1.62
2013-6-8,85.2,72.0,62.5,71.0,67.1,61.3,98,86,55,30.10,29.82,1,0,5,0.07
2013-6-9,89.7,75.7,64.3,74.4,69.3,63.4,98,82,55,30.17,30.06,0,0,6,0.03
2013-6-10,82.8,73.1,70.3,76.2,71.4,69.1,97,94,79,30.10,29.88,1,0,8,0.59
2013-6-11,84.8,74.8,67.4,70.7,67.8,65.2,97,81,54,29.96,29.90,1,0,7,0.00
2013-6-12,91.3,76.7,62.5,77.0,70.1,61.3,98,82,58,29.98,29.86,1,0,4,0.00
2013-6-13,94.6,78.6,67.1,76.2,71.4,64.5,96,81,48,29.87,29.58,6,0,9,0.25
2013-6-14,78.5,68.9,57.9,65.8,60.3,56.7,97,77,52,30.02,29.73,2,0,5,0.00
2013-6-15,85.1,71.1,57.4,67.1,61.9,56.6,98,76,45,30.14,30.03,1,0,6,0.00
2013-6-16,88.2,75.2,63.2,72.4,67.0,60.7,93,77,56,30.12,30.00,1,0,9,0.00
2013-6-17,85.0,76.3,70.0,75.0,70.3,66.2,90,82,68,30.03,29.92,0,0,2,0.00
2013-6-18,83.6,72.8,68.2,75.0,69.9,67.0,97,91,74,29.97,29.76,1,0,6,0.38
2013-6-19,79.9,71.1,62.9,70.0,66.5,62.0,98,86,69,30.13,29.89,1,0,5,0.01
2013-6-20,83.1,71.4,63.2,67.4,63.5,59.2,97,78,52,30.25,30.13,1,0,6,0.00
2013-6-21,83.4,69.8,55.7,64.5,58.1,53.2,95,70,36,30.28,30.21,2,0,6,0.00
2013-6-22,82.8,71.7,65.2,72.3,68.4,62.9,96,90,70,30.23,30.13,1,0,5,0.11
2013-6-23,88.5,76.1,66.8,75.3,70.8,65.9,98,85,57,30.22,30.12,1,0,3,0.00
2013-6-24,88.8,76.7,69.4,76.5,72.0,68.2,97,86,62,30.21,30.09,1,0,6,0.00
2013-6-25,91.0,77.2,68.6,77.7,71.5,67.1,97,84,60,30.12,30.00,0,0,5,0.01
2013-6-26,92.3,78.7,68.8,77.1,71.8,66.8,97,81,57,30.03,29.88,2,0,5,0.18
2013-6-27,89.0,77.9,66.9,77.1,72.3,66.0,98,84,60,29.93,29.71,1,0,2,0.00
2013-6-28,91.7,77.9,70.6,77.1,72.2,68.2,97,84,55,29.75,29.56,4,0,5,0.71
2013-6-29,87.0,76.5,68.7,75.3,71.5,67.8,98,86,64,29.72,29.59,1,0,4,0.17
2013-6-30,88.1,74.1,68.8,76.6,70.9,67.6,97,90,63,29.86,29.71,0,0,2,0.35
2013-7-1,82.8,74.8,69.1,74.7,71.3,68.2,98,90,72,30.00,29.85,1,0,6,0.65
2013-7-2,75.8,72.9,71.2,74.0,71.5,69.7,97,95,91,30.19,29.99,1,0,5,0.52
2013-7-3,87.7,75.9,72.1,77.4,73.2,70.7,98,92,68,30.24,30.15,0,0,4,0.39
2013-7-4,86.1,77.0,71.9,78.0,73.5,70.9,97,90,66,30.28,30.18,1,0,7,0.63
2013-7-5,88.9,79.1,71.4,77.1,73.5,70.2,97,84,62,30.28,30.16,1,0,4,0.00
2013-7-6,88.7,78.3,72.0,76.2,72.8,70.8,97,84,62,30.25,30.12,0,0,2,0.00
2013-7-7,87.7,77.4,69.0,77.9,72.8,67.8,97,86,69,30.19,30.06,1,0,4,0.43
2013-7-8,89.7,77.1,68.9,77.7,72.6,68.0,98,87,59,30.18,30.09,0,0,1,1.20
2013-7-9,88.1,76.9,71.5,78.8,74.0,69.5,97,91,71,30.16,30.06,0,0,1,0.19
2013-7-10,88.1,78.3,71.5,77.6,73.6,69.7,97,86,68,30.10,29.94,2,0,5,0.96
2013-7-11,76.9,73.8,71.8,75.3,72.7,70.6,98,96,92,29.97,29.88,1,0,5,0.92
2013-7-12,74.1,70.7,68.5,71.4,69.3,67.5,98,95,87,30.04,29.88,1,0,5,0.04
2013-7-13,75.8,71.9,68.4,74.6,70.8,67.5,98,96,93,30.19,30.02,1,0,5,0.21
2013-7-14,88.8,78.2,71.2,76.1,72.9,70.1,97,85,60,30.31,30.19,1,0,5,0.00
2013-7-15,90.5,78.2,67.6,76.3,71.5,66.7,98,82,54,30.33,30.25,1,0,4,0.00
2013-7-16,95.9,80.8,68.3,80.1,73.6,67.4,98,81,52,30.28,30.18,0,0,1,0.00
2013-7-17,93.3,85.8,73.1,79.3,75.5,71.7,96,73,53,30.23,30.11,1,0,4,0.00
2013-7-18,96.0,82.5,71.6,80.8,75.3,70.4,97,81,51,30.15,30.03,0,0,0,0.00
2013-7-19,92.2,81.4,72.3,79.4,75.3,71.1,97,83,61,30.09,29.98,1,0,6,0.00
2013-7-20,88.8,78.9,73.3,78.6,74.3,71.2,94,86,69,30.01,29.91,1,0,5,0.00
2013-7-21,90.6,78.0,72.6,78.6,73.8,71.4,97,88,65,29.98,29.90,0,0,3,0.03
2013-7-22,88.2,76.2,70.4,77.1,72.7,69.5,98,90,67,29.95,29.82,0,0,1,0.01
2013-7-23,90.2,79.5,72.8,77.2,73.2,71.0,95,83,59,29.84,29.72,1,0,4,0.00
2013-7-24,92.7,79.4,68.5,76.0,71.5,67.4,98,79,47,29.85,29.73,1,0,4,0.00
2013-7-25,79.8,71.5,64.7,70.4,67.3,63.5,97,87,71,30.05,29.84,2,0,5,1.56
2013-7-26,84.0,72.2,61.6,71.5,65.8,60.4,98,82,59,30.13,30.03,0,0,1,0.00
2013-7-27,83.4,71.7,66.3,74.0,68.4,65.0,98,90,64,30.06,29.94,1,0,1,0.64
2013-7-28,87.0,75.8,67.8,75.7,71.2,66.9,98,87,62,30.00,29.92,0,0,4,0.00
2013-7-29,86.4,74.1,65.2,70.8,66.4,61.5,97,80,47,30.17,29.99,1,0,5,0.12
2013-7-30,86.8,72.1,59.4,73.5,65.3,58.3,98,81,50,30.24,30.15,0,0,3,0.00
2013-7-31,83.6,74.6,68.7,74.7,70.7,67.5,97,88,68,30.16,30.00,1,0,1,0.52
2013-8-1,86.4,75.5,70.1,76.1,71.6,65.5,97,89,66,30.01,29.86,2,0,3,0.11
2013-8-2,88.0,75.3,66.4,75.1,69.2,65.2,98,83,54,30.03,29.91,0,0,0,0.30
2013-8-3,88.1,74.2,68.6,78.9,72.0,67.6,98,93,70,30.02,29.92,1,0,4,1.23
2013-8-4,83.9,75.5,65.4,70.5,67.2,62.9,97,77,51,30.04,29.95,1,0,5,0.01
2013-8-5,82.2,71.3,62.3,71.3,65.0,61.1,98,82,56,30.11,30.01,1,0,1,0.00
2013-8-6,82.4,74.9,66.6,72.7,68.9,65.1,95,82,69,30.07,30.02,1,0,3,0.32
2013-8-7,85.5,75.7,66.7,74.3,70.2,65.2,97,84,62,30.10,30.03,1,0,2,0.00
2013-8-8,73.4,73.4,73.4,70.9,70.9,70.9,92,92,92,30.05,30.05,0,0,0,0.00
2013-8-9,73.9,73.6,73.5,72.2,71.9,71.4,95,94,93,30.05,30.01,0,0,0,0.01
2013-8-10,91.7,76.6,70.8,80.7,73.7,69.3,97,91,65,30.09,30.02,3,0,6,2.30
2013-8-11,92.3,83.6,71.9,79.2,75.6,71.0,97,79,56,30.11,30.02,0,0,1,0.23
2013-8-12,91.7,77.7,70.2,78.3,73.3,69.3,98,88,55,30.06,29.94,2,0,2,0.35
2013-8-13,88.1,75.7,70.2,78.3,72.9,69.3,98,91,69,29.99,29.78,0,0,0,0.28
2013-8-14,75.7,69.2,61.1,70.9,65.3,59.1,97,88,65,30.10,29.83,1,0,5,0.00
2013-8-15,75.6,63.8,56.8,64.5,58.5,55.7,97,84,53,30.19,30.10,2,0,6,0.00
2013-8-16,70.4,65.4,56.3,63.7,60.8,55.5,98,85,72,30.21,30.14,1,0,1,0.01
2013-8-17,59.3,59.3,59.3,57.9,57.9,57.9,95,95,95,30.19,30.19,0,0,0,0.00
2013-8-19,75.3,71.6,67.0,71.6,69.2,65.8,96,92,86,30.15,30.11,0,0,0,0.58
2013-8-20,81.4,73.0,64.2,74.1,69.4,63.3,98,89,72,30.20,30.12,0,0,1,0.00
2013-8-21,85.5,74.0,70.6,77.8,71.8,69.4,98,93,72,30.23,30.15,0,0,4,2.06
2013-8-22,90.2,84.6,73.0,74.5,72.7,71.3,95,69,55,30.09,30.00,0,0,0,0.00
2013-8-23,87.5,74.9,66.8,75.9,70.1,63.9,97,86,61,30.09,29.94,2,0,5,0.00
2013-8-24,80.8,70.3,61.9,66.1,63.0,60.5,95,80,52,30.32,30.12,2,0,6,0.00
2013-8-25,79.3,68.2,58.2,65.1,61.2,57.1,98,80,48,30.41,30.30,1,0,5,0.00
2013-8-26,83.4,74.0,53.0,67.2,62.1,51.9,96,69,43,30.34,30.13,0,0,1,0.01
2013-8-27,89.9,72.7,61.0,77.3,67.4,59.4,95,85,54,30.14,29.97,1,0,4,0.00
2013-8-28,80.2,74.8,68.7,76.3,72.4,67.5,97,93,84,30.00,29.87,0,0,0,0.01
2013-8-29,85.8,76.7,70.5,74.9,72.0,68.4,96,86,65,30.02,29.85,2,0,6,0.00
2013-8-30,88.3,75.1,66.7,73.3,68.6,65.2,96,82,52,30.08,29.95,0,0,3,0.00
2013-8-31,88.6,75.8,66.7,76.1,70.8,65.0,97,85,63,29.97,29.86,1,0,4,0.35
2013-9-1,89.0,76.2,69.1,79.5,72.3,68.0,97,89,69,29.90,29.79,1,0,5,0.45
2013-9-2,87.9,76.2,67.8,76.9,72.0,66.9,98,88,63,29.89,29.80,0,0,1,0.01
2013-9-3,88.4,76.4,69.6,78.6,72.5,68.5,97,88,62,29.95,29.80,0,0,1,0.07
2013-9-4,72.1,72.1,72.1,70.3,70.3,70.3,94,94,94,29.95,29.95,0,0,0,0.00
2013-9-5,85.8,72.4,65.7,70.0,66.6,63.7,95,84,48,30.10,30.04,0,0,0,0.01
2013-9-6,80.5,70.1,59.5,65.1,61.5,56.7,95,76,52,30.20,30.10,1,0,6,0.00
2013-9-7,81.8,64.6,56.4,69.3,61.2,55.3,97,90,63,30.15,29.99,0,0,1,0.00
2013-9-8,87.8,72.5,61.5,72.2,65.0,60.3,97,80,48,30.00,29.92,1,0,1,0.01
2013-9-9,87.7,74.1,64.5,73.4,68.2,63.3,97,84,55,30.16,30.00,1,0,2,0.00
2013-9-10,89.9,74.5,67.0,75.1,69.6,65.8,97,86,55,30.24,30.14,0,0,3,0.00
2013-9-11,90.9,76.4,65.8,75.2,69.7,64.3,96,82,55,30.20,30.07,0,0,6,0.01
2013-9-12,90.1,75.3,67.1,76.4,70.2,65.3,95,85,60,30.07,29.81,0,0,1,0.02
2013-9-13,83.7,73.9,67.0,67.8,65.2,58.5,94,77,47,29.82,29.76,1,0,6,0.00
2013-9-14,75.2,66.7,55.0,60.6,55.3,49.6,93,69,48,30.16,30.05,1,0,3,0.00
2013-9-15,80.2,64.1,49.7,65.5,57.4,48.3,97,81,53,30.26,30.14,0,0,2,0.00
2013-9-16,84.0,71.7,61.7,70.5,64.8,60.0,96,81,51,30.21,30.06,1,0,5,0.00
2013-9-17,74.6,63.9,54.6,60.5,55.8,51.7,94,77,48,30.34,30.21,2,0,9,0.00
2013-9-18,73.0,58.5,48.4,57.6,51.5,47.0,96,80,42,30.34,30.20,1,0,2,0.00
2013-9-19,76.0,63.4,52.8,65.8,58.6,51.1,96,85,58,30.22,30.10,0,0,2,0.00
2013-9-20,69.5,65.6,62.3,66.6,63.6,60.8,96,93,89,30.10,29.98,0,0,0,0.25
2013-9-21,76.1,68.2,63.3,71.0,66.0,61.9,96,93,83,29.98,29.74,1,0,2,0.46
2013-9-22,75.3,65.8,56.7,63.1,60.5,55.3,97,84,58,29.91,29.72,2,0,7,0.13
2013-9-23,72.5,60.9,52.0,59.6,54.2,50.0,96,80,54,30.09,29.92,1,0,6,0.00
2013-9-24,77.2,62.4,52.7,63.1,56.9,51.3,96,84,56,30.12,29.97,0,0,1,0.00
2013-9-25,72.0,61.5,51.7,65.1,58.5,50.6,98,90,65,29.98,29.89,0,0,0,0.01
2013-9-26,73.6,63.5,55.5,61.4,58.1,53.8,97,84,52,30.06,29.91,2,0,6,0.00
2013-9-27,72.7,60.1,51.2,60.9,55.0,50.1,97,85,57,30.22,30.06,1,0,7,0.01
2013-9-28,69.4,58.6,50.0,57.6,53.5,48.9,97,85,61,30.29,30.20,3,0,7,0.01
2013-9-29,72.6,59.3,50.6,59.3,53.7,49.3,97,84,52,30.20,30.06,1,0,5,0.01
2013-9-30,76.0,59.9,49.5,63.4,55.0,48.4,97,86,52,30.12,30.02,0,0,0,0.00
2013-10-1,81.8,65.5,52.2,67.8,59.3,51.1,97,82,50,30.14,30.04,0,0,1,0.01
2013-10-2,83.4,67.2,55.5,66.8,60.3,54.4,97,81,47,30.15,30.06,1,0,4,0.00
2013-10-3,86.3,69.3,58.2,68.5,62.5,56.8,97,82,45,30.14,30.06,0,0,2,0.00
2013-10-4,86.5,71.1,60.7,70.4,64.6,59.3,97,82,52,30.14,30.06,0,0,2,0.01
2013-10-5,89.2,72.4,61.1,71.1,65.5,60.0,97,82,49,30.13,30.03,0,0,1,0.00
2013-10-6,83.9,72.0,61.9,70.5,66.4,60.5,97,84,60,30.07,29.93,1,0,5,0.00
2013-10-7,72.7,69.2,62.2,69.8,66.8,55.3,97,92,78,30.02,29.84,1,0,6,1.50
2013-10-8,63.8,59.0,56.0,55.4,50.8,47.5,84,74,64,30.24,30.02,4,1,13,0.00
2013-10-9,64.9,58.2,53.5,56.9,53.0,49.5,94,83,73,30.22,30.13,4,1,15,0.08
2013-10-10,59.9,56.0,52.3,58.6,54.7,50.9,96,95,94,30.13,29.97,2,1,8,0.58
2013-10-11,67.6,61.9,58.2,63.5,59.2,56.5,95,91,82,29.99,29.93,1,0,6,0.00
2013-10-12,66.6,63.0,60.5,64.5,61.1,58.7,95,94,92,30.10,29.98,1,0,2,0.03
2013-10-13,64.9,62.0,59.9,62.5,60.5,58.6,96,95,92,30.24,30.10,2,0,7,0.09
2013-10-14,63.2,60.2,55.7,60.2,58.7,54.3,97,95,89,30.27,30.20,2,0,7,0.03
2013-10-15,72.3,61.1,51.5,61.0,56.3,50.4,97,85,61,30.23,30.08,2,0,4,0.01
2013-10-16,71.8,64.2,60.7,63.5,60.9,59.0,95,89,74,30.09,29.96,1,0,1,0.00
2013-10-17,70.9,64.7,59.5,66.0,62.1,58.4,97,92,78,29.98,29.84,1,0,1,0.03
2013-10-18,70.1,60.3,51.8,64.1,53.1,46.8,96,79,50,30.06,29.89,2,0,4,0.00
2013-10-19,65.7,58.5,52.9,63.2,56.8,51.5,96,94,90,30.00,29.83,0,0,0,0.02
2013-10-20,63.3,52.5,41.7,55.6,45.0,40.1,96,78,45,30.15,29.92,2,0,8,0.01
2013-10-21,67.8,50.8,36.6,52.7,44.6,35.6,98,82,48,30.19,30.03,0,0,1,0.01
2013-10-22,67.7,58.6,51.4,58.9,54.2,49.2,95,86,60,30.03,29.82,1,0,4,0.00
2013-10-23,64.3,56.0,44.9,57.2,48.5,36.4,96,78,46,30.01,29.70,2,0,5,0.17
2013-10-24,56.9,45.0,34.2,40.6,35.8,32.1,95,72,44,30.21,30.02,2,0,8,0.00
2013-10-25,53.5,43.6,34.5,37.1,33.5,28.9,93,70,39,30.40,30.21,2,0,7,0.00
2013-10-26,58.4,42.8,28.1,38.6,32.3,26.9,96,70,37,30.40,30.09,1,0,4,0.00
2013-10-27,66.0,52.0,41.9,47.6,41.0,37.6,92,69,40,30.15,30.07,1,0,6,0.00
2013-10-28,69.8,54.6,43.5,54.9,48.5,41.7,96,82,53,30.28,30.14,1,0,1,0.00
2013-10-29,70.7,58.4,51.7,58.2,53.3,49.8,95,85,59,30.35,30.26,1,0,3,0.00
2013-10-30,74.1,60.0,52.3,60.8,55.8,50.9,97,87,61,30.31,30.17,1,0,5,0.00
2013-10-31,72.6,63.9,57.4,62.6,58.3,55.3,93,83,67,30.20,29.91,1,0,7,0.00
2013-11-1,70.4,66.7,60.3,65.9,63.9,58.6,95,91,81,29.91,29.66,2,0,10,0.30
2013-11-2,68.2,59.3,50.8,58.2,50.6,39.1,97,76,42,29.96,29.70,2,0,4,0.01
2013-11-3,61.7,49.9,39.5,41.6,39.2,36.8,92,69,41,30.40,29.96,3,0,7,0.00
2013-11-4,53.2,42.9,34.9,36.3,33.5,30.8,92,71,43,30.60,30.40,2,0,6,0.00
2013-11-5,57.1,46.5,34.7,48.7,40.5,31.5,90,80,67,30.60,30.47,1,0,5,0.00
2013-11-6,70.7,55.1,43.0,56.4,49.3,40.8,95,82,57,30.47,30.13,1,0,5,0.00
2013-11-7,66.6,57.6,41.9,60.0,51.1,34.0,96,80,52,30.14,29.95,2,0,5,0.00
2013-11-8,54.8,43.1,31.7,35.2,30.5,25.3,90,64,33,30.36,30.12,2,0,6,0.00
2013-11-9,57.4,42.5,28.5,36.6,31.3,26.4,95,68,36,30.41,30.21,1,0,5,0.00
2013-11-10,69.1,53.1,38.0,42.1,35.6,27.6,88,56,30,30.27,30.08,3,0,9,0.00
2013-11-11,59.5,45.3,31.6,34.9,30.9,27.6,88,60,32,30.37,30.16,1,0,5,0.00
2013-11-12,56.9,42.5,32.5,39.2,32.8,18.6,91,70,47,30.47,30.06,4,0,7,0.02
2013-11-13,43.3,32.9,26.2,22.5,19.7,17.4,83,60,36,30.58,30.46,3,0,14,0.00
2013-11-14,57.9,39.9,25.1,26.3,23.5,21.2,88,57,25,30.51,30.36,2,0,7,0.00
2013-11-15,60.6,46.7,30.5,48.4,35.9,24.2,89,68,43,30.38,30.24,1,0,2,0.01
2013-11-16,59.8,54.2,49.1,56.4,52.1,47.1,96,93,87,30.30,30.23,1,0,2,0.03
2013-11-17,65.8,59.6,53.7,63.1,57.4,52.6,97,93,83,30.25,29.89,2,0,7,0.03
2013-11-18,71.2,63.4,51.9,65.1,51.4,30.4,96,69,37,29.99,29.81,2,0,6,0.10
2013-11-19,53.4,46.5,39.3,33.6,30.2,28.0,72,54,38,30.34,29.98,3,0,6,0.00
2013-11-20,50.2,43.9,37.8,36.4,33.1,29.5,89,67,49,30.49,30.34,2,0,6,0.00
2013-11-21,55.6,46.8,37.0,45.8,40.7,34.3,92,80,67,30.55,30.42,1,0,3,0.00
2013-11-22,67.4,56.6,46.3,59.5,51.7,43.3,91,84,75,30.42,30.09,1,0,6,0.00
2013-11-23,60.9,53.5,41.6,58.5,42.0,21.9,94,67,38,30.19,30.05,2,0,7,0.01
2013-11-24,41.3,31.1,24.6,25.4,10.9,2.6,66,44,26,30.59,30.20,4,1,7,0.00
2013-11-25,41.1,30.6,17.7,16.6,11.6,7.4,81,48,25,30.63,30.42,1,0,5,0.00
2013-11-26,61.7,40.1,33.2,60.8,33.7,14.4,100,80,40,30.42,29.64,4,1,8,1.01
2013-11-27,45.3,37.9,28.9,44.5,33.7,18.5,99,86,63,30.19,29.53,5,1,10,0.56
2013-11-28,41.0,30.2,22.5,24.0,20.2,16.6,86,68,43,30.52,30.20,1,0,4,0.00
2013-11-29,47.2,35.0,24.4,27.5,24.9,22.3,93,69,42,30.68,30.51,2,0,6,0.00
2013-11-30,44.4,33.5,24.7,31.9,26.6,21.9,92,76,60,30.69,30.42,2,0,5,0.00
2013-12-1,55.6,37.9,25.0,35.6,29.3,23.5,95,75,40,30.41,30.07,1,0,3,0.00
2013-12-2,59.2,43.6,30.3,40.3,35.3,28.8,96,75,46,30.06,29.85,1,0,2,0.00
2013-12-3,56.3,45.7,33.5,47.8,41.3,32.0,96,85,68,30.02,29.90,1,0,4,0.02
2013-12-4,61.8,54.4,48.8,57.6,52.5,47.2,97,93,86,30.11,30.00,0,0,0,0.05
2013-12-5,66.5,61.4,55.6,63.4,60.0,54.2,97,95,88,30.13,30.03,2,0,7,0.11
2013-12-6,75.2,69.1,64.0,65.4,63.7,61.8,96,83,67,30.07,29.96,6,1,12,0.00
2013-12-7,68.3,46.9,41.0,64.6,43.1,33.7,95,87,75,30.49,29.98,4,1,11,0.66
2013-12-8,41.0,34.3,31.6,34.2,30.9,27.1,96,88,68,30.50,30.32,3,1,7,0.17
2013-12-9,43.7,38.7,32.8,42.9,37.8,31.8,97,97,96,30.33,30.09,0,0,4,0.36
2013-12-10,45.9,41.0,28.2,43.9,38.4,25.7,97,91,67,30.35,29.96,1,0,5,0.54
2013-12-11,47.0,34.3,24.8,28.6,25.3,22.5,94,73,40,30.49,30.32,1,0,4,0.01
2013-12-12,41.1,33.5,24.9,27.7,22.5,14.8,90,66,34,30.46,30.32,2,0,5,0.00
2013-12-13,49.5,35.1,23.1,30.5,22.6,18.8,89,64,32,30.43,30.31,1,0,4,0.00
2013-12-14,45.8,39.9,36.1,40.8,34.6,28.4,96,82,55,30.34,29.81,4,0,6,0.73
2013-12-15,50.3,40.6,32.9,42.5,35.3,28.3,97,83,58,30.09,29.74,4,0,8,0.01
2013-12-16,53.3,40.4,28.8,36.6,31.7,26.7,93,73,45,30.20,30.09,1,0,5,0.00
2013-12-17,61.5,46.3,33.7,40.2,36.0,31.2,92,70,39,30.14,29.89,4,0,6,0.00
2013-12-18,46.0,36.7,29.4,36.7,24.3,18.8,93,64,34,30.32,30.06,2,0,5,0.01
2013-12-19,61.1,45.1,29.2,31.3,25.5,21.0,79,49,26,30.34,30.24,3,0,7,0.00
2013-12-20,64.8,54.4,44.4,52.9,44.8,31.1,84,71,52,30.26,30.12,3,0,8,0.00
2013-12-21,72.5,60.8,48.3,64.8,55.8,46.4,94,84,68,30.16,30.03,4,1,15,0.00
2013-12-22,73.7,67.9,62.4,68.2,64.5,60.3,95,89,78,30.09,30.00,4,1,12,0.34
2013-12-23,64.9,58.6,43.6,63.4,56.3,36.5,96,92,75,30.19,30.00,3,0,5,0.98
2013-12-24,43.5,38.5,28.0,36.7,27.5,14.6,78,65,47,30.49,30.16,3,1,6,0.00
2013-12-25,37.3,28.0,20.9,20.5,14.3,10.9,82,58,36,30.59,30.44,3,0,6,0.00
2013-12-26,50.0,35.0,21.6,28.2,23.8,17.0,88,66,39,30.44,30.29,1,0,4,0.00
2013-12-27,50.9,34.7,24.3,29.5,23.6,20.7,92,68,32,30.51,30.41,2,0,4,0.00
2013-12-28,57.3,36.7,26.2,31.8,26.1,23.5,91,71,32,30.44,30.31,1,0,3,0.00
2013-12-29,53.0,44.3,41.2,50.2,42.9,39.9,97,95,88,30.19,29.74,3,0,4,1.44
2013-12-30,51.9,43.7,36.0,43.4,38.8,34.5,97,84,67,30.17,29.95,2,0,0,0.00
2013-12-31,41.4,36.6,31.7,36.4,31.9,23.5,96,84,57,30.39,30.15,1,0,0,0.02
2014-1-1,49.5,38.1,29.2,30.9,27.5,24.1,90,68,38,30.45,30.18,1,0,5,0.00
2014-1-2,48.0,41.2,34.1,42.3,36.8,30.1,100,85,72,30.18,29.63,2,0,6,0.37